Camanche, Iowa
Current Conditions -  °F | °C
As of 1:15 PM on Thursday 23 Oct 2014 (Local Time) from KCWI Reporting Station
Overcast Overcast  
Wind Chill: 57°   Ceiling: 3100
Heat Index: 57°   Visibility: 10mi
Dew Point: 45°   Wind: 10mph
Humidity: 63%   Direction: 200°SSW
Pressure: 30.1"   Gusts: NA
Location:  41.79°N, 90.26°W
Report Text: KCWI 231815Z 20009KT 10SM OVC031 14/07 A3010 RMK AO1
Loading
Personal Weather Stations






























Interactive Weather Map
Tropical Storm Tracking
New forecast layout! Learn more

10-Day Weather Forecast

Advertisements
Track Severe Weather on mobile